Time;durP1;ratioP1;P1;durP2;ratioP2;P2;SDS_P1;SDS_P2;PMS_P1;PMS_P2;Temp;Humidity;BMP_temperature;BMP_pressure;BME280_temperature;BME280_humidity;BME280_pressure;Samples;Min_cycle;Max_cycle;Signal;HPM_P1;HPM_P2
2020/12/13 00:00:14;;;;;;;29.73;19.60;;;;;;;6.45;72.97;93490.50;4180210;28;20081;-72
2020/12/13 00:02:15;;;;;;;26.48;19.10;;;;;;;6.46;73.17;93497.34;4202512;28;20364;-71
2020/12/13 00:04:16;;;;;;;25.63;17.98;;;;;;;6.48;73.19;93494.56;4195574;28;20194;-72
2020/12/13 00:06:18;;;;;;;23.73;18.13;;;;;;;6.50;73.04;93490.03;4200277;28;20163;-71
2020/12/13 00:08:20;;;;;;;25.42;18.77;;;;;;;6.53;72.49;93490.50;4200641;28;20048;-72
2020/12/13 00:10:23;;;;;;;25.60;17.10;;;;;;;6.50;72.71;93488.22;4194975;28;20444;-72
2020/12/13 00:12:25;;;;;;;25.55;18.33;;;;;;;6.51;72.45;93494.25;4172171;28;20496;-73
2020/12/13 00:14:26;;;;;;;23.80;17.48;;;;;;;6.53;72.86;93500.09;4195051;28;20476;-73
2020/12/13 00:16:28;;;;;;;24.15;17.05;;;;;;;6.52;72.66;93498.47;4200924;28;20455;-72
2020/12/13 00:18:29;;;;;;;22.55;16.13;;;;;;;6.50;72.61;93495.22;4192606;28;20040;-80
2020/12/13 00:20:31;;;;;;;23.25;16.25;;;;;;;6.51;72.68;93495.03;4192562;28;20059;-80
2020/12/13 00:22:32;;;;;;;19.40;15.68;;;;;;;6.52;71.85;93495.88;4193227;28;20511;-80
2020/12/13 00:24:33;;;;;;;19.80;15.80;;;;;;;6.55;71.78;93496.34;4187254;28;20053;-81
2020/12/13 00:26:35;;;;;;;20.70;15.88;;;;;;;6.55;71.73;93492.94;4191227;28;20059;-80
2020/12/13 00:28:37;;;;;;;20.70;15.65;;;;;;;6.56;71.44;93495.38;4195443;28;20124;-80
2020/12/13 00:30:38;;;;;;;22.92;15.85;;;;;;;6.55;71.43;93496.34;4198354;28;20048;-81
2020/12/13 00:32:39;;;;;;;22.92;15.73;;;;;;;6.56;71.79;93498.00;4195843;28;20067;-82
2020/12/13 00:34:40;;;;;;;20.30;16.08;;;;;;;6.61;71.97;93501.88;4195906;28;20049;-82
2020/12/13 00:36:42;;;;;;;21.00;15.85;;;;;;;6.61;71.65;93496.69;4175967;28;20061;-80
2020/12/13 00:38:43;;;;;;;24.50;15.95;;;;;;;6.62;71.21;93500.91;4196354;28;20045;-80
2020/12/13 00:40:44;;;;;;;21.30;15.95;;;;;;;6.62;71.44;93498.28;4194714;28;20111;-80
2020/12/13 00:42:45;;;;;;;22.75;16.05;;;;;;;6.53;71.32;93500.91;4194761;28;20525;-81
2020/12/13 00:44:47;;;;;;;36.25;23.75;;;;;;;6.19;72.68;93510.66;4194693;28;20057;-82
2020/12/13 00:46:48;;;;;;;46.97;28.33;;;;;;;6.01;74.01;93509.00;4194122;28;20052;-80
2020/12/13 00:48:50;;;;;;;48.10;31.13;;;;;;;6.05;73.93;93506.91;4195933;28;20041;-80
2020/12/13 00:50:51;;;;;;;58.63;37.08;;;;;;;6.08;74.90;93504.78;4194761;28;20052;-81
2020/12/13 00:52:53;;;;;;;65.00;38.58;;;;;;;6.15;74.63;93505.78;4195279;28;20056;-81
2020/12/13 00:54:54;;;;;;;66.13;41.40;;;;;;;5.95;75.53;93507.84;4206433;28;20055;-81
2020/12/13 00:56:58;;;;;;;74.20;43.70;;;;;;;5.56;77.53;93505.00;4195793;28;20492;-81
2020/12/13 00:59:01;;;;;;;76.50;45.20;;;;;;;5.55;78.01;93505.97;4192526;28;20478;-81
2020/12/13 01:01:02;;;;;;;72.30;45.63;;;;;;;5.59;77.90;93501.25;4195686;28;20052;-79
2020/12/13 01:03:03;;;;;;;84.70;51.17;;;;;;;5.45;78.13;93500.09;4195299;28;20633;-80
2020/12/13 01:05:05;;;;;;;86.70;51.28;;;;;;;4.98;80.84;93505.72;4194952;28;20059;-80
2020/12/13 01:07:06;;;;;;;84.30;50.20;;;;;;;4.86;81.04;93503.41;4177775;28;20115;-82
2020/12/13 01:09:08;;;;;;;85.95;49.70;;;;;;;4.99;80.94;93502.16;4195221;28;20052;-81
2020/12/13 01:11:09;;;;;;;78.45;47.05;;;;;;;5.09;80.51;93508.03;4179934;28;20045;-79
2020/12/13 01:13:11;;;;;;;74.25;48.00;;;;;;;5.23;80.07;93501.47;4184321;28;20127;-80
2020/12/13 01:15:13;;;;;;;69.75;44.67;;;;;;;5.17;79.75;93508.09;4187708;28;20516;-80
2020/12/13 01:17:14;;;;;;;73.00;44.08;;;;;;;5.03;80.67;93512.06;4198404;28;20298;-82
2020/12/13 01:19:15;;;;;;;66.85;40.13;;;;;;;5.10;79.66;93514.88;4195831;28;20056;-80
2020/12/13 01:21:22;;;;;;;63.15;41.38;;;;;;;5.17;80.44;93515.88;4176146;28;20065;-80
2020/12/13 01:23:24;;;;;;;69.97;41.20;;;;;;;5.33;79.45;93513.38;4176274;28;20548;-80
2020/12/13 01:25:25;;;;;;;65.55;40.67;;;;;;;5.50;79.22;93510.81;4191724;28;20220;-80
2020/12/13 01:27:27;;;;;;;65.97;42.08;;;;;;;5.62;77.97;93506.16;4187787;28;20067;-79
2020/12/13 01:29:28;;;;;;;69.43;42.38;;;;;;;5.63;78.58;93511.16;4194495;28;20416;-79
2020/12/13 01:31:30;;;;;;;67.43;40.90;;;;;;;5.60;78.17;93508.09;4193860;28;20048;-79
2020/12/13 01:33:31;;;;;;;64.20;40.38;;;;;;;5.64;77.78;93506.81;4194547;28;20393;-80
2020/12/13 01:35:32;;;;;;;60.08;38.13;;;;;;;5.66;78.23;93504.88;4194035;28;20049;-79
2020/12/13 01:37:34;;;;;;;62.15;37.40;;;;;;;5.68;78.05;93500.31;4201916;28;20054;-83
2020/12/13 01:39:35;;;;;;;58.90;37.38;;;;;;;5.73;77.87;93501.47;4184270;28;20415;-80
2020/12/13 01:41:37;;;;;;;56.08;36.00;;;;;;;5.78;77.04;93502.78;4200611;28;20048;-79
2020/12/13 01:43:38;;;;;;;59.63;37.22;;;;;;;5.78;76.83;93505.38;4174176;28;20057;-81
2020/12/13 01:45:40;;;;;;;58.88;35.90;;;;;;;5.83;77.05;93503.09;4166168;28;20096;-79
2020/12/13 01:47:41;;;;;;;63.35;37.08;;;;;;;5.88;76.90;93493.06;4194833;28;20487;-81
2020/12/13 01:49:45;;;;;;;61.60;38.00;;;;;;;5.96;76.98;93487.91;4193584;28;20589;-80
2020/12/13 01:54:00;;;;;;;58.05;36.28;;;;;;;6.12;76.37;93498.28;4178911;28;20060;-78
2020/12/13 01:56:03;;;;;;;55.72;35.50;;;;;;;6.14;76.13;93498.94;4159660;28;20594;-81
2020/12/13 01:58:05;;;;;;;55.00;36.25;;;;;;;6.12;75.49;93498.28;4194536;28;20059;-81
2020/12/13 02:00:11;;;;;;;58.67;36.42;;;;;;;6.12;75.95;93495.69;4176345;28;20045;-82
2020/12/13 02:02:15;;;;;;;60.72;38.53;;;;;;;6.05;75.61;93493.91;4191870;28;20056;-80
2020/12/13 02:04:20;;;;;;;55.55;37.40;;;;;;;6.02;76.31;93509.81;4177186;28;20048;-82
2020/12/13 02:06:25;;;;;;;52.80;33.45;;;;;;;6.00;76.48;93497.00;4194970;28;20112;-82
2020/12/13 02:08:36;;;;;;;52.30;32.78;;;;;;;6.03;76.31;93499.28;4193820;28;20103;-79
2020/12/13 02:10:38;;;;;;;43.85;29.50;;;;;;;6.05;75.86;93494.72;4197144;28;20052;-82
2020/12/13 02:12:39;;;;;;;41.00;27.45;;;;;;;6.10;75.87;93496.84;4159596;28;20053;-80
2020/12/13 02:14:40;;;;;;;44.60;29.73;;;;;;;6.13;75.34;93497.34;4193484;28;20048;-79
2020/12/13 02:16:45;;;;;;;49.75;33.03;;;;;;;6.16;75.16;93501.41;4196766;28;20048;-81
2020/12/13 02:18:47;;;;;;;45.50;30.38;;;;;;;6.16;75.15;93496.19;4178868;28;20430;-80
2020/12/13 02:20:48;;;;;;;43.53;29.85;;;;;;;6.21;75.21;93500.91;4175808;28;20107;-81
2020/12/13 02:22:50;;;;;;;49.88;31.98;;;;;;;6.24;75.44;93498.81;4189478;28;20656;-80
2020/12/13 02:24:51;;;;;;;39.95;26.08;;;;;;;6.21;75.09;93498.31;4202924;28;20060;-80
2020/12/13 02:26:53;;;;;;;43.45;27.10;;;;;;;6.05;75.19;93502.53;4183670;28;20490;-79
2020/12/13 02:28:54;;;;;;;48.15;32.03;;;;;;;5.90;76.03;93499.72;4193650;28;20060;-81
2020/12/13 02:30:55;;;;;;;50.63;33.17;;;;;;;5.79;76.40;93509.59;4193750;28;20470;-72
2020/12/13 02:32:57;;;;;;;49.55;31.08;;;;;;;5.80;76.52;93512.03;4182835;28;20056;-70
2020/12/13 02:34:58;;;;;;;49.97;32.13;;;;;;;5.85;76.60;93509.78;4192824;28;20450;-72
2020/12/13 02:37:00;;;;;;;34.67;22.58;;;;;;;5.98;76.65;93514.56;4176354;28;20066;-71
2020/12/13 02:39:03;;;;;;;36.15;24.85;;;;;;;5.97;75.57;93518.09;4196593;28;20043;-71
2020/12/13 02:41:05;;;;;;;29.45;19.83;;;;;;;5.91;76.04;93513.50;4174824;28;20508;-72
2020/12/13 02:43:06;;;;;;;25.88;18.58;;;;;;;5.91;75.60;93513.50;4190186;28;20056;-73
2020/12/13 02:45:07;;;;;;;29.55;19.75;;;;;;;5.80;76.57;93516.41;4200562;28;20082;-72
2020/12/13 02:47:08;;;;;;;34.65;22.05;;;;;;;5.84;75.91;93517.72;4171076;28;20421;-71
2020/12/13 02:49:10;;;;;;;34.22;22.08;;;;;;;5.88;76.09;93516.44;4187685;28;20143;-72
2020/12/13 02:51:11;;;;;;;31.50;19.17;;;;;;;5.86;75.46;93511.41;4161751;28;20444;-71
2020/12/13 02:53:12;;;;;;;26.65;18.30;;;;;;;5.87;76.04;93520.00;4207294;28;20067;-72
2020/12/13 02:55:14;;;;;;;29.17;17.88;;;;;;;5.78;75.44;93515.75;4192846;28;20068;-71
2020/12/13 02:57:15;;;;;;;31.05;22.15;;;;;;;5.58;76.52;93526.44;4189306;28;20052;-71
2020/12/13 02:59:16;;;;;;;40.30;26.30;;;;;;;5.56;76.87;93525.78;4192466;28;20450;-72
2020/12/13 03:01:17;;;;;;;56.45;35.85;;;;;;;5.37;77.80;93526.03;4191507;28;20056;-72
2020/12/13 03:03:19;;;;;;;69.22;43.97;;;;;;;5.06;78.85;93527.34;4176981;28;20057;-72
2020/12/13 03:05:21;;;;;;;64.03;40.88;;;;;;;4.94;79.67;93525.97;4186855;28;20053;-72
2020/12/13 03:07:22;;;;;;;65.88;39.80;;;;;;;5.04;79.23;93524.09;4192517;28;20090;-72
2020/12/13 03:09:24;;;;;;;64.43;40.03;;;;;;;5.18;79.19;93524.47;4187979;28;20059;-71
2020/12/13 03:11:25;;;;;;;59.28;39.83;;;;;;;5.31;78.64;93527.44;4174991;28;20049;-73
2020/12/13 03:13:27;;;;;;;66.97;42.97;;;;;;;5.39;78.25;93531.88;4173347;28;20140;-71
2020/12/13 03:15:28;;;;;;;64.38;42.00;;;;;;;5.37;78.16;93537.22;4196076;28;20067;-72
2020/12/13 03:17:30;;;;;;;64.68;40.58;;;;;;;5.41;77.71;93537.72;4201589;28;20048;-71
2020/12/13 03:19:31;;;;;;;62.67;39.47;;;;;;;5.43;77.95;93536.59;4192287;28;20048;-71
2020/12/13 03:21:32;;;;;;;63.55;39.85;;;;;;;5.47;77.51;93535.31;4203237;28;20407;-71
2020/12/13 03:23:33;;;;;;;66.03;43.25;;;;;;;5.43;77.64;93533.19;4192003;28;20048;-72
2020/12/13 03:25:35;;;;;;;70.53;43.25;;;;;;;5.05;79.06;93527.50;4192778;28;20067;-71
2020/12/13 03:27:36;;;;;;;68.93;44.17;;;;;;;4.87;79.08;93537.94;4189984;28;20106;-70
2020/12/13 03:29:37;;;;;;;64.75;42.20;;;;;;;4.80;80.52;93536.94;4172286;28;20055;-72
2020/12/13 03:31:38;;;;;;;62.42;40.13;;;;;;;4.66;80.81;93546.06;4206877;28;20507;-73
2020/12/13 03:33:40;;;;;;;63.33;39.95;;;;;;;4.46;80.77;93554.03;4184591;28;20087;-71
2020/12/13 03:35:41;;;;;;;63.67;40.53;;;;;;;4.25;81.64;93543.16;4158007;28;20049;-70
2020/12/13 03:37:42;;;;;;;60.28;39.92;;;;;;;4.35;81.84;93551.69;4191547;28;20399;-72
2020/12/13 03:39:44;;;;;;;65.03;40.60;;;;;;;4.19;81.99;93552.34;4173512;28;20108;-71
2020/12/13 03:41:45;;;;;;;68.45;42.40;;;;;;;3.90;83.73;93557.75;4187619;28;20486;-72
2020/12/13 03:43:46;;;;;;;64.20;41.85;;;;;;;3.63;84.18;93559.38;4204390;28;20644;-72
2020/12/13 03:45:47;;;;;;;67.72;43.78;;;;;;;3.45;85.59;93556.75;4194008;28;20049;-72
2020/12/13 03:47:49;;;;;;;67.53;44.72;;;;;;;3.32;86.28;93558.88;4208999;28;20118;-72
2020/12/13 03:49:50;;;;;;;71.75;45.10;;;;;;;3.31;86.83;93556.41;4208917;28;20048;-79
2020/12/13 03:51:51;;;;;;;69.38;44.55;;;;;;;3.40;86.62;93551.22;4200038;28;20048;-80
2020/12/13 03:53:52;;;;;;;65.50;41.47;;;;;;;3.44;85.82;93560.31;4174552;28;20049;-79
2020/12/13 03:55:54;;;;;;;65.63;41.88;;;;;;;3.52;85.60;93554.41;4203941;28;20052;-81
2020/12/13 03:57:55;;;;;;;62.83;41.28;;;;;;;3.45;85.68;93558.53;4192925;28;20044;-80
2020/12/13 03:59:56;;;;;;;71.43;41.65;;;;;;;3.35;86.17;93560.34;4182669;28;20048;-80
2020/12/13 04:01:57;;;;;;;70.22;41.97;;;;;;;3.53;85.82;93556.06;4180737;28;20404;-73
2020/12/13 04:04:00;;;;;;;67.13;41.05;;;;;;;3.64;85.03;93553.25;4206914;28;20528;-70
2020/12/13 04:06:01;;;;;;;62.20;39.15;;;;;;;3.86;84.52;93559.00;4195574;28;20060;-72
2020/12/13 04:08:02;;;;;;;65.75;41.80;;;;;;;4.08;83.94;93561.16;4181260;28;20059;-72
2020/12/13 04:10:03;;;;;;;74.80;43.35;;;;;;;4.21;82.30;93559.97;4206832;28;20048;-71
2020/12/13 04:12:05;;;;;;;70.05;42.60;;;;;;;4.33;82.08;93558.78;4176219;28;20137;-71
2020/12/13 04:14:06;;;;;;;77.47;43.22;;;;;;;4.41;81.77;93560.63;4198761;28;20048;-72
2020/12/13 04:16:11;;;;;;;68.05;41.05;;;;;;;4.45;80.87;93559.34;4164407;28;20097;-72
2020/12/13 04:18:12;;;;;;;72.88;41.50;;;;;;;4.55;80.59;93572.25;4180351;28;20121;-73
2020/12/13 04:20:14;;;;;;;65.40;40.78;;;;;;;4.59;80.52;93563.22;4187704;28;20581;-73
2020/12/13 04:22:15;;;;;;;62.95;39.78;;;;;;;4.62;80.36;93558.50;4193425;28;20055;-80
2020/12/13 04:24:16;;;;;;;65.00;38.80;;;;;;;4.72;80.20;93568.81;4214349;28;20063;-80
2020/12/13 04:26:17;;;;;;;63.25;37.78;;;;;;;4.80;79.70;93562.88;4187578;28;20404;-79
2020/12/13 04:28:19;;;;;;;66.65;39.00;;;;;;;4.84;79.24;93567.59;4205448;28;20095;-80
2020/12/13 04:30:21;;;;;;;61.83;38.50;;;;;;;4.95;78.95;93568.31;4206561;28;20404;-81
2020/12/13 04:32:23;;;;;;;64.90;38.22;;;;;;;5.01;78.88;93567.69;4203254;28;20469;-82
2020/12/13 04:34:26;;;;;;;59.70;36.53;;;;;;;5.04;78.64;93573.41;4192368;28;20060;-81
2020/12/13 04:36:27;;;;;;;63.15;36.65;;;;;;;5.06;78.30;93570.66;4163103;28;20107;-80
2020/12/13 04:38:28;;;;;;;59.35;37.17;;;;;;;5.09;78.65;93572.94;4197523;28;20056;-80
2020/12/13 04:40:32;;;;;;;61.90;36.28;;;;;;;5.09;78.12;93580.72;4179458;28;20118;-82
2020/12/13 04:42:37;;;;;;;59.25;36.65;;;;;;;5.12;78.49;93581.25;4184219;28;20065;-79
2020/12/13 04:44:38;;;;;;;60.20;36.35;;;;;;;5.16;77.70;93584.34;4201509;28;20396;-81
2020/12/13 04:46:42;;;;;;;58.25;35.88;;;;;;;5.15;78.52;93577.53;4162480;28;20170;-71
2020/12/13 04:48:43;;;;;;;60.03;35.50;;;;;;;5.19;77.80;93578.03;4178900;28;20049;-71
2020/12/13 04:50:48;;;;;;;64.82;37.03;;;;;;;5.22;78.18;93582.91;4162442;28;20057;-71
2020/12/13 04:52:53;;;;;;;64.15;37.42;;;;;;;5.05;78.28;93585.41;4176896;28;20144;-71
2020/12/13 04:54:54;;;;;;;69.63;39.13;;;;;;;5.04;78.60;93585.56;4196817;28;20499;-72
2020/12/13 04:56:58;;;;;;;59.00;35.55;;;;;;;4.84;79.33;93578.00;4194066;28;20489;-71
2020/12/13 04:59:04;;;;;;;61.22;34.58;;;;;;;4.87;79.44;93576.88;4196392;28;20051;-71
2020/12/13 05:01:05;;;;;;;63.47;36.38;;;;;;;4.90;78.74;93585.16;4198911;28;20059;-74
2020/12/13 05:03:06;;;;;;;66.95;35.55;;;;;;;5.00;78.88;93586.84;4197231;28;20076;-73
2020/12/13 05:05:10;;;;;;;65.43;36.42;;;;;;;5.07;78.94;93587.84;4197862;28;20471;-80
2020/12/13 05:07:11;;;;;;;;;;;;;;;5.12;78.03;93596.00;4182244;28;20091;-81
2020/12/13 05:09:14;;;;;;;59.03;33.53;;;;;;;5.13;78.31;93587.25;4196659;28;19927;-80
2020/12/13 05:11:16;;;;;;;60.30;33.40;;;;;;;5.15;77.87;93585.31;4160118;28;20064;-80
2020/12/13 05:13:18;;;;;;;53.38;33.55;;;;;;;5.18;77.77;93584.19;4195007;28;20472;-79
2020/12/13 05:15:19;;;;;;;65.82;35.28;;;;;;;5.15;78.30;93587.91;4178855;28;20053;-79
2020/12/13 05:17:24;;;;;;;67.60;43.10;;;;;;;5.18;78.45;93591.97;4176765;28;20542;-81
2020/12/13 05:19:25;;;;;;;62.30;34.58;;;;;;;5.22;77.94;93586.31;4194800;28;20064;-79
2020/12/13 05:21:27;;;;;;;54.03;33.63;;;;;;;5.22;78.32;93586.31;4178673;28;20059;-80
2020/12/13 05:23:29;;;;;;;58.08;35.80;;;;;;;5.23;77.92;93582.78;4173318;28;20053;-80
2020/12/13 05:25:39;;;;;;;61.95;37.05;;;;;;;5.22;77.88;93581.13;4154760;28;20056;-79
2020/12/13 05:27:41;;;;;;;64.10;37.42;;;;;;;5.26;77.85;93585.03;4202187;28;20060;-80
2020/12/13 05:29:45;;;;;;;61.05;34.45;;;;;;;5.25;77.62;93593.00;4208422;28;20044;-79
2020/12/13 05:31:46;;;;;;;66.50;35.22;;;;;;;5.26;77.55;93589.44;4200600;28;20066;-79
2020/12/13 05:33:54;;;;;;;59.75;34.15;;;;;;;5.24;77.83;93586.97;4201909;28;20059;-80
2020/12/13 05:36:15;;;;;;;58.35;33.72;;;;;;;5.23;77.47;93582.78;4175740;28;20049;-80
2020/12/13 05:38:17;;;;;;;58.40;33.72;;;;;;;5.26;77.66;93587.66;4181564;28;20123;-81
2020/12/13 05:40:18;;;;;;;58.92;35.03;;;;;;;5.29;77.22;93595.13;4194679;28;20143;-79
2020/12/13 05:42:40;;;;;;;56.00;32.25;;;;;;;5.25;78.05;93590.41;4192161;28;20052;-79
2020/12/13 05:47:08;;;;;;;62.10;33.80;;;;;;;5.24;77.33;93594.78;4199542;28;20077;-80
2020/12/13 05:53:14;;;;;;;60.10;33.20;;;;;;;5.25;77.90;93599.00;4176013;28;20048;-80
2020/12/13 05:55:20;;;;;;;59.63;31.98;;;;;;;5.24;77.72;93599.97;4166923;28;20053;-80
2020/12/13 05:57:22;;;;;;;52.90;30.30;;;;;;;5.27;77.59;93604.88;4181560;28;20488;-79
2020/12/13 05:59:24;;;;;;;58.63;31.73;;;;;;;5.32;77.24;93613.00;4174136;28;20131;-80
2020/12/13 06:01:25;;;;;;;59.00;31.45;;;;;;;5.32;77.61;93617.38;4202834;28;20748;-80
2020/12/13 06:03:34;;;;;;;56.20;32.28;;;;;;;5.38;77.05;93615.94;4178811;28;20092;-81
2020/12/13 06:05:36;;;;;;;56.97;32.53;;;;;;;5.40;77.03;93619.19;4190951;28;20052;-71
2020/12/13 06:07:49;;;;;;;59.47;32.55;;;;;;;5.42;76.85;93619.84;4174971;28;20052;-71
2020/12/13 06:09:54;;;;;;;51.88;30.25;;;;;;;5.43;77.07;93618.91;4187158;28;20059;-71
2020/12/13 06:12:01;;;;;;;54.47;31.00;;;;;;;5.45;76.91;93622.97;4190648;28;20068;-70
2020/12/13 06:14:19;;;;;;;52.88;30.60;;;;;;;5.47;76.44;93617.63;4168377;28;20049;-71
2020/12/13 06:16:22;;;;;;;54.35;30.10;;;;;;;5.50;76.21;93619.91;4192191;28;20115;-81
2020/12/13 06:18:23;;;;;;;51.55;28.25;;;;;;;5.50;75.88;93620.72;4194062;28;20044;-80
2020/12/13 06:20:25;;;;;;;53.80;30.10;;;;;;;5.53;76.50;93627.41;4186272;28;20064;-82
2020/12/13 06:22:27;;;;;;;53.47;30.02;;;;;;;5.57;76.56;93635.69;4203397;28;20068;-80
2020/12/13 06:24:28;;;;;;;48.40;29.73;;;;;;;5.59;76.30;93638.94;4190957;28;20048;-80
2020/12/13 06:26:30;;;;;;;51.25;30.73;;;;;;;5.60;76.02;93638.00;4166211;28;20135;-81
2020/12/13 06:28:31;;;;;;;50.22;28.85;;;;;;;5.65;75.98;93640.94;4197942;28;20526;-80
2020/12/13 06:30:32;;;;;;;52.78;29.23;;;;;;;5.67;76.34;93647.59;4177150;28;20098;-81
2020/12/13 06:32:41;;;;;;;60.20;31.15;;;;;;;5.71;75.98;93638.53;4173279;28;20080;-82
2020/12/13 06:34:45;;;;;;;53.15;30.05;;;;;;;5.74;75.09;93645.19;4178600;28;20057;-71
2020/12/13 06:36:47;;;;;;;49.10;30.10;;;;;;;5.75;75.55;93652.84;4195042;28;20100;-71
2020/12/13 06:38:50;;;;;;;54.78;30.52;;;;;;;5.68;75.48;93645.84;4174487;28;20051;-74
2020/12/13 06:40:52;;;;;;;;;;;;;;;5.26;76.74;93649.16;4175364;28;20072;-71
2020/12/13 06:42:53;;;;;;;51.83;31.02;;;;;;;5.29;76.90;93649.69;4173445;28;20044;-72
2020/12/13 06:45:05;;;;;;;53.60;30.77;;;;;;;4.96;78.11;93653.00;4193045;28;20060;-71
2020/12/13 06:47:24;;;;;;;56.95;31.13;;;;;;;4.88;78.46;93651.16;4191966;28;20052;-72
2020/12/13 06:49:25;;;;;;;54.97;29.20;;;;;;;4.95;78.94;93649.59;4174600;28;20041;-70
2020/12/13 06:51:32;;;;;;;81.80;45.15;;;;;;;4.81;79.72;93657.91;4174881;28;20233;-72
2020/12/13 06:53:36;;;;;;;55.95;32.05;;;;;;;4.97;79.24;93659.81;4192024;28;20057;-73
2020/12/13 06:55:38;;;;;;;53.00;30.33;;;;;;;4.90;78.58;93668.22;4157879;28;20086;-71
2020/12/13 06:57:41;;;;;;;55.90;31.73;;;;;;;4.67;79.00;93654.88;4190257;28;20143;-71
2020/12/13 06:59:45;;;;;;;54.97;31.35;;;;;;;4.72;79.79;93662.22;4178504;28;20195;-72
2020/12/13 07:01:47;;;;;;;56.65;32.60;;;;;;;4.82;79.21;93668.16;4177711;28;20435;-71
2020/12/13 07:03:49;;;;;;;60.40;32.70;;;;;;;4.96;79.42;93661.59;4187352;28;20056;-72
2020/12/13 07:05:57;;;;;;;55.45;30.42;;;;;;;5.10;78.66;93668.84;4175981;28;20045;-71
2020/12/13 07:07:58;;;;;;;56.17;31.30;;;;;;;5.18;78.18;93675.88;4186775;28;20066;-72
2020/12/13 07:10:01;;;;;;;53.70;30.95;;;;;;;5.25;77.95;93673.50;4175241;28;20055;-72
2020/12/13 07:12:03;;;;;;;59.15;31.67;;;;;;;5.35;77.35;93674.19;4174696;28;20076;-72
2020/12/13 07:14:07;;;;;;;61.83;33.83;;;;;;;5.39;77.20;93669.53;4174647;28;20079;-71
2020/12/13 07:16:25;;;;;;;59.85;33.03;;;;;;;5.32;77.63;93670.13;4172252;28;20135;-70
2020/12/13 07:18:30;;;;;;;54.78;31.92;;;;;;;4.87;79.05;93680.66;4166453;28;20049;-72
2020/12/13 07:20:33;;;;;;;61.33;33.45;;;;;;;4.68;79.89;93681.63;4198731;28;20047;-73
2020/12/13 07:22:34;;;;;;;54.70;31.33;;;;;;;4.76;79.68;93686.09;4175830;28;20053;-73
2020/12/13 07:24:36;;;;;;;62.05;31.35;;;;;;;4.62;79.91;93687.41;4192968;28;20084;-73
2020/12/13 07:26:39;;;;;;;59.25;33.25;;;;;;;4.75;80.27;93690.44;4190022;28;20056;-71
2020/12/13 07:28:40;;;;;;;59.00;32.88;;;;;;;4.65;79.63;93689.72;4174603;28;20041;-73
2020/12/13 07:30:42;;;;;;;63.20;36.55;;;;;;;4.61;80.27;93690.97;4156875;28;20304;-70
2020/12/13 07:32:43;;;;;;;56.20;32.13;;;;;;;4.45;80.83;93700.22;4179065;28;20582;-71
2020/12/13 07:34:45;;;;;;;56.17;32.15;;;;;;;4.40;80.56;93705.03;4192648;28;20054;-71
2020/12/13 07:36:46;;;;;;;56.30;32.83;;;;;;;4.50;80.81;93694.59;4173506;28;20473;-69
2020/12/13 07:38:48;;;;;;;53.75;31.80;;;;;;;4.67;80.54;93703.38;4188049;28;20048;-70
2020/12/13 07:40:49;;;;;;;60.08;32.40;;;;;;;4.87;79.49;93707.44;4191084;28;20054;-70
2020/12/13 07:42:54;;;;;;;59.20;31.95;;;;;;;5.02;78.67;93712.09;4190166;28;20055;-71
2020/12/13 07:44:59;;;;;;;60.35;32.38;;;;;;;5.06;78.74;93713.44;4192540;28;20488;-73
2020/12/13 07:47:00;;;;;;;57.42;31.95;;;;;;;5.16;78.53;93721.94;4173295;28;20055;-72
2020/12/13 07:49:15;;;;;;;66.00;36.58;;;;;;;5.04;77.81;93726.56;4192686;28;20128;-71
2020/12/13 07:51:16;;;;;;;70.55;39.55;;;;;;;4.99;78.44;93722.75;4173577;28;20056;-73
2020/12/13 07:53:24;;;;;;;73.25;40.70;;;;;;;5.11;78.86;93732.78;4191732;28;20052;-72
2020/12/13 07:55:27;;;;;;;82.57;47.03;;;;;;;5.08;78.61;93729.69;4174052;28;20053;-71
2020/12/13 07:57:28;;;;;;;81.13;47.00;;;;;;;4.85;78.93;93729.31;4172693;28;20053;-73
2020/12/13 07:59:29;;;;;;;92.03;49.92;;;;;;;4.79;79.62;93733.28;4189925;28;20048;-70
2020/12/13 08:01:31;;;;;;;86.55;49.00;;;;;;;4.81;79.14;93733.97;4176273;28;20488;-71
2020/12/13 08:03:42;;;;;;;80.35;44.05;;;;;;;4.92;78.91;93732.94;4157526;28;20116;-71
2020/12/13 08:05:44;;;;;;;86.13;45.72;;;;;;;4.98;78.75;93745.31;4188198;28;20060;-72
2020/12/13 08:08:04;;;;;;;81.75;44.03;;;;;;;5.11;78.65;93739.75;4189197;28;20071;-72
2020/12/13 08:10:06;;;;;;;76.10;42.88;;;;;;;5.20;78.51;93751.81;4183356;28;20044;-72
2020/12/13 08:12:08;;;;;;;77.50;44.15;;;;;;;5.33;77.93;93751.44;4200282;28;20054;-72
2020/12/13 08:14:10;;;;;;;72.03;41.47;;;;;;;5.40;77.20;93754.25;4173925;28;20107;-72
2020/12/13 08:16:13;;;;;;;67.25;39.88;;;;;;;5.40;77.04;93751.66;4190341;28;20059;-70
2020/12/13 08:18:16;;;;;;;74.45;40.72;;;;;;;5.38;77.12;93751.00;4166157;28;20053;-70
2020/12/13 08:20:17;;;;;;;73.85;42.50;;;;;;;5.43;76.81;93748.78;4156939;28;20520;-71
2020/12/13 08:22:24;;;;;;;69.00;40.83;;;;;;;5.49;77.56;93745.56;4173032;28;20044;-72
2020/12/13 08:24:26;;;;;;;71.82;39.97;;;;;;;5.54;77.10;93743.31;4185810;28;20048;-71
2020/12/13 08:26:28;;;;;;;71.18;39.63;;;;;;;5.45;77.53;93741.66;4181164;28;20052;-75
2020/12/13 08:28:30;;;;;;;67.93;39.88;;;;;;;5.38;77.91;93746.63;4174206;28;20056;-74
2020/12/13 08:30:32;;;;;;;72.10;39.08;;;;;;;5.39;77.86;93742.25;4182181;28;20122;-74
2020/12/13 08:32:35;;;;;;;73.18;42.33;;;;;;;5.40;77.54;93739.50;4179937;28;20123;-71
2020/12/13 08:34:36;;;;;;;71.85;40.80;;;;;;;5.45;76.82;93732.06;4173238;28;20055;-71
2020/12/13 08:36:38;;;;;;;67.53;40.40;;;;;;;5.51;77.12;93735.84;4174089;28;20400;-68
2020/12/13 08:38:39;;;;;;;64.85;38.80;;;;;;;5.44;77.59;93734.81;4173943;28;20055;-70
2020/12/13 08:40:43;;;;;;;87.25;47.78;;;;;;;5.38;77.67;93736.25;4175506;28;20657;-72
2020/12/13 08:42:45;;;;;;;;;;;;;;;5.32;77.27;93737.66;4171639;28;20056;-68
2020/12/13 08:44:46;;;;;;;63.13;37.13;;;;;;;5.33;77.76;93748.84;4176609;28;20571;-70
2020/12/13 08:46:48;;;;;;;62.35;38.60;;;;;;;5.50;77.07;93749.78;4177785;28;20061;-69
2020/12/13 08:48:51;;;;;;;61.85;37.22;;;;;;;5.69;76.76;93753.97;4175317;28;20152;-69
2020/12/13 08:51:09;;;;;;;61.25;38.00;;;;;;;5.87;76.27;93757.38;4176838;28;20428;-71
2020/12/13 08:53:24;;;;;;;66.70;40.38;;;;;;;5.95;75.17;93754.00;4151894;28;20041;-71
2020/12/13 08:55:27;;;;;;;68.20;40.03;;;;;;;6.00;75.21;93756.97;4177847;28;20045;-70
2020/12/13 08:57:29;;;;;;;65.32;38.30;;;;;;;6.04;74.30;93753.06;4175155;28;20067;-70
2020/12/13 08:59:30;;;;;;;64.57;38.42;;;;;;;6.10;74.86;93755.06;4176096;28;20107;-68
2020/12/13 09:01:35;;;;;;;66.72;39.47;;;;;;;6.16;74.54;93751.03;4175525;28;20167;-70
2020/12/13 09:03:36;;;;;;;60.53;36.72;;;;;;;6.24;74.20;93758.88;4171875;28;20052;-70
2020/12/13 09:05:37;;;;;;;56.30;35.85;;;;;;;6.33;73.41;93757.13;4177286;28;20061;-69
2020/12/13 09:07:43;;;;;;;60.50;36.80;;;;;;;6.43;73.71;93762.19;4170405;28;20061;-69
2020/12/13 09:09:44;;;;;;;60.60;36.35;;;;;;;6.51;73.78;93765.63;4176773;28;20295;-70
2020/12/13 09:11:46;;;;;;;56.38;37.28;;;;;;;6.56;73.52;93758.19;4173557;28;20128;-70
2020/12/13 09:13:50;;;;;;;61.70;37.75;;;;;;;6.62;73.75;93755.94;4176737;28;20088;-69
2020/12/13 09:15:52;;;;;;;65.07;39.75;;;;;;;6.67;72.96;93753.69;4176160;28;20187;-78
2020/12/13 09:17:58;;;;;;;58.78;39.33;;;;;;;6.72;72.76;93747.00;4172649;28;20573;-79
2020/12/13 09:20:00;;;;;;;51.88;33.42;;;;;;;6.64;71.97;93748.78;4173868;28;20128;-71
2020/12/13 09:22:01;;;;;;;62.60;36.10;;;;;;;6.61;72.32;93749.09;4175701;28;20128;-78
2020/12/13 09:24:02;;;;;;;56.88;35.55;;;;;;;6.67;72.32;93753.69;4189222;28;20093;-81
2020/12/13 09:26:04;;;;;;;52.03;33.72;;;;;;;6.67;72.39;93748.47;4192520;28;20087;-79
2020/12/13 09:28:06;;;;;;;59.47;36.10;;;;;;;6.67;72.38;93749.28;4171407;28;20058;-79
2020/12/13 09:30:07;;;;;;;67.10;38.67;;;;;;;6.74;72.43;93749.47;4167928;28;20056;-77
2020/12/13 09:32:09;;;;;;;56.70;37.67;;;;;;;6.77;72.17;93749.13;4187291;28;20079;-79
2020/12/13 09:34:10;;;;;;;63.95;40.15;;;;;;;6.59;72.13;93748.44;4177924;28;20041;-79
2020/12/13 09:36:14;;;;;;;72.47;44.00;;;;;;;6.39;72.98;93746.09;4173074;28;20056;-80
2020/12/13 09:38:16;;;;;;;89.72;49.83;;;;;;;6.25;73.71;93749.28;4181037;28;20048;-76
2020/12/13 09:40:17;;;;;;;76.85;48.72;;;;;;;6.23;74.00;93743.44;4175650;28;20068;-79